sensor_id;sensor_type;location;lat;lon;timestamp;P1;durP1;ratioP1;P2;durP2;ratioP2
9128;SDS011;4599;50.906;6.786;2023-04-15T00:03:27;4.00;;;2.00;;
9128;SDS011;4599;50.906;6.786;2023-04-15T00:07:29;4.73;;;1.93;;
9128;SDS011;4599;50.906;6.786;2023-04-15T00:11:32;5.30;;;1.80;;
9128;SDS011;4599;50.906;6.786;2023-04-15T00:15:34;5.17;;;2.23;;
9128;SDS011;4599;50.906;6.786;2023-04-15T00:19:35;7.27;;;2.20;;
9128;SDS011;4599;50.906;6.786;2023-04-15T00:23:37;5.67;;;2.00;;
9128;SDS011;4599;50.906;6.786;2023-04-15T00:27:40;5.77;;;2.00;;
9128;SDS011;4599;50.906;6.786;2023-04-15T00:31:41;5.83;;;2.23;;
9128;SDS011;4599;50.906;6.786;2023-04-15T00:35:43;6.27;;;2.03;;
9128;SDS011;4599;50.906;6.786;2023-04-15T00:39:44;5.80;;;1.90;;
9128;SDS011;4599;50.906;6.786;2023-04-15T00:43:47;4.90;;;2.27;;
9128;SDS011;4599;50.906;6.786;2023-04-15T00:47:48;3.70;;;2.20;;
9128;SDS011;4599;50.906;6.786;2023-04-15T00:51:51;5.53;;;2.43;;
9128;SDS011;4599;50.906;6.786;2023-04-15T00:55:52;4.43;;;2.20;;
9128;SDS011;4599;50.906;6.786;2023-04-15T00:59:55;5.17;;;2.23;;
9128;SDS011;4599;50.906;6.786;2023-04-15T01:03:58;3.67;;;2.17;;
9128;SDS011;4599;50.906;6.786;2023-04-15T01:08:01;4.90;;;2.50;;
9128;SDS011;4599;50.906;6.786;2023-04-15T01:12:03;7.07;;;2.70;;
9128;SDS011;4599;50.906;6.786;2023-04-15T01:16:07;4.40;;;2.53;;
9128;SDS011;4599;50.906;6.786;2023-04-15T01:20:10;7.17;;;2.93;;
9128;SDS011;4599;50.906;6.786;2023-04-15T01:24:12;6.53;;;3.00;;
9128;SDS011;4599;50.906;6.786;2023-04-15T01:28:17;5.50;;;2.90;;
9128;SDS011;4599;50.906;6.786;2023-04-15T01:32:18;6.27;;;2.80;;
9128;SDS011;4599;50.906;6.786;2023-04-15T01:36:20;8.27;;;2.93;;
9128;SDS011;4599;50.906;6.786;2023-04-15T01:40:21;4.90;;;2.80;;
9128;SDS011;4599;50.906;6.786;2023-04-15T01:44:24;5.83;;;2.70;;
9128;SDS011;4599;50.906;6.786;2023-04-15T01:48:25;9.80;;;3.13;;
9128;SDS011;4599;50.906;6.786;2023-04-15T01:52:27;6.03;;;2.93;;
9128;SDS011;4599;50.906;6.786;2023-04-15T01:56:28;7.30;;;3.20;;
9128;SDS011;4599;50.906;6.786;2023-04-15T02:00:31;8.17;;;3.00;;
9128;SDS011;4599;50.906;6.786;2023-04-15T02:04:34;7.03;;;3.20;;
9128;SDS011;4599;50.906;6.786;2023-04-15T02:08:35;6.00;;;2.80;;
9128;SDS011;4599;50.906;6.786;2023-04-15T02:12:37;10.83;;;3.63;;
9128;SDS011;4599;50.906;6.786;2023-04-15T02:16:40;8.13;;;3.80;;
9128;SDS011;4599;50.906;6.786;2023-04-15T02:20:41;6.00;;;3.90;;
9128;SDS011;4599;50.906;6.786;2023-04-15T02:24:43;8.23;;;3.97;;
9128;SDS011;4599;50.906;6.786;2023-04-15T02:28:45;8.17;;;4.20;;
9128;SDS011;4599;50.906;6.786;2023-04-15T02:32:48;7.40;;;3.80;;
9128;SDS011;4599;50.906;6.786;2023-04-15T02:36:49;8.13;;;4.73;;
9128;SDS011;4599;50.906;6.786;2023-04-15T02:40:51;8.17;;;4.23;;
9128;SDS011;4599;50.906;6.786;2023-04-15T02:44:52;7.10;;;4.00;;
9128;SDS011;4599;50.906;6.786;2023-04-15T02:48:55;7.27;;;3.60;;
9128;SDS011;4599;50.906;6.786;2023-04-15T02:52:57;8.50;;;3.97;;
9128;SDS011;4599;50.906;6.786;2023-04-15T02:56:58;6.50;;;3.93;;
9128;SDS011;4599;50.906;6.786;2023-04-15T03:01:00;6.93;;;4.10;;
9128;SDS011;4599;50.906;6.786;2023-04-15T03:05:03;8.27;;;4.00;;
9128;SDS011;4599;50.906;6.786;2023-04-15T03:09:05;8.80;;;4.20;;
9128;SDS011;4599;50.906;6.786;2023-04-15T03:13:07;7.60;;;3.90;;
9128;SDS011;4599;50.906;6.786;2023-04-15T03:17:08;8.23;;;3.73;;
9128;SDS011;4599;50.906;6.786;2023-04-15T03:21:11;7.43;;;4.13;;
9128;SDS011;4599;50.906;6.786;2023-04-15T03:25:13;6.33;;;3.57;;
9128;SDS011;4599;50.906;6.786;2023-04-15T03:29:14;8.17;;;3.60;;
9128;SDS011;4599;50.906;6.786;2023-04-15T03:33:16;10.87;;;3.80;;
9128;SDS011;4599;50.906;6.786;2023-04-15T03:37:19;7.43;;;3.80;;
9128;SDS011;4599;50.906;6.786;2023-04-15T03:41:20;4.63;;;3.47;;
9128;SDS011;4599;50.906;6.786;2023-04-15T03:45:23;7.00;;;3.57;;
9128;SDS011;4599;50.906;6.786;2023-04-15T03:49:25;8.83;;;4.00;;
9128;SDS011;4599;50.906;6.786;2023-04-15T03:53:28;8.77;;;3.93;;
9128;SDS011;4599;50.906;6.786;2023-04-15T03:57:30;7.73;;;3.60;;
9128;SDS011;4599;50.906;6.786;2023-04-15T04:01:31;10.93;;;3.93;;
9128;SDS011;4599;50.906;6.786;2023-04-15T04:05:33;6.40;;;3.70;;
9128;SDS011;4599;50.906;6.786;2023-04-15T04:09:36;7.70;;;3.70;;
9128;SDS011;4599;50.906;6.786;2023-04-15T04:13:37;10.03;;;4.13;;
9128;SDS011;4599;50.906;6.786;2023-04-15T04:17:40;9.67;;;4.20;;
9128;SDS011;4599;50.906;6.786;2023-04-15T04:21:41;6.07;;;3.70;;
9128;SDS011;4599;50.906;6.786;2023-04-15T04:25:44;7.87;;;4.07;;
9128;SDS011;4599;50.906;6.786;2023-04-15T04:29:46;10.00;;;4.90;;
9128;SDS011;4599;50.906;6.786;2023-04-15T04:33:47;6.23;;;4.30;;
9128;SDS011;4599;50.906;6.786;2023-04-15T04:37:49;10.67;;;4.27;;
9128;SDS011;4599;50.906;6.786;2023-04-15T04:41:51;12.57;;;4.13;;
9128;SDS011;4599;50.906;6.786;2023-04-15T04:45:53;10.00;;;4.57;;
9128;SDS011;4599;50.906;6.786;2023-04-15T04:49:54;10.83;;;4.37;;
9128;SDS011;4599;50.906;6.786;2023-04-15T04:53:56;9.43;;;4.33;;
9128;SDS011;4599;50.906;6.786;2023-04-15T04:57:58;10.70;;;4.30;;
9128;SDS011;4599;50.906;6.786;2023-04-15T05:02:00;8.57;;;4.37;;
9128;SDS011;4599;50.906;6.786;2023-04-15T05:06:02;10.60;;;4.30;;
9128;SDS011;4599;50.906;6.786;2023-04-15T05:10:04;8.37;;;4.20;;
9128;SDS011;4599;50.906;6.786;2023-04-15T05:14:08;8.43;;;3.87;;
9128;SDS011;4599;50.906;6.786;2023-04-15T05:18:12;6.40;;;3.40;;
9128;SDS011;4599;50.906;6.786;2023-04-15T05:22:15;6.87;;;3.70;;
9128;SDS011;4599;50.906;6.786;2023-04-15T05:26:17;7.97;;;3.83;;
9128;SDS011;4599;50.906;6.786;2023-04-15T05:30:20;6.27;;;3.97;;
9128;SDS011;4599;50.906;6.786;2023-04-15T05:34:21;9.00;;;4.17;;
9128;SDS011;4599;50.906;6.786;2023-04-15T05:38:23;6.47;;;4.10;;
9128;SDS011;4599;50.906;6.786;2023-04-15T05:42:24;8.53;;;3.77;;
9128;SDS011;4599;50.906;6.786;2023-04-15T05:46:27;9.97;;;3.93;;
9128;SDS011;4599;50.906;6.786;2023-04-15T05:50:28;7.70;;;3.80;;
9128;SDS011;4599;50.906;6.786;2023-04-15T05:54:30;7.37;;;3.67;;
9128;SDS011;4599;50.906;6.786;2023-04-15T05:58:31;5.97;;;3.37;;
9128;SDS011;4599;50.906;6.786;2023-04-15T06:02:34;7.10;;;3.30;;
9128;SDS011;4599;50.906;6.786;2023-04-15T06:06:36;4.97;;;2.80;;
9128;SDS011;4599;50.906;6.786;2023-04-15T06:10:37;6.93;;;3.00;;
9128;SDS011;4599;50.906;6.786;2023-04-15T06:14:39;6.73;;;3.00;;
9128;SDS011;4599;50.906;6.786;2023-04-15T06:18:42;6.90;;;3.43;;
9128;SDS011;4599;50.906;6.786;2023-04-15T06:22:43;5.70;;;3.20;;
9128;SDS011;4599;50.906;6.786;2023-04-15T06:26:44;7.57;;;3.00;;
9128;SDS011;4599;50.906;6.786;2023-04-15T06:30:46;6.43;;;3.40;;
9128;SDS011;4599;50.906;6.786;2023-04-15T06:34:49;6.63;;;3.27;;
9128;SDS011;4599;50.906;6.786;2023-04-15T06:38:50;5.23;;;3.03;;
9128;SDS011;4599;50.906;6.786;2023-04-15T06:42:51;7.13;;;3.07;;
9128;SDS011;4599;50.906;6.786;2023-04-15T06:46:53;6.97;;;3.47;;
9128;SDS011;4599;50.906;6.786;2023-04-15T06:50:56;6.50;;;2.90;;
9128;SDS011;4599;50.906;6.786;2023-04-15T06:54:57;5.70;;;3.30;;
9128;SDS011;4599;50.906;6.786;2023-04-15T06:58:59;6.10;;;3.50;;
9128;SDS011;4599;50.906;6.786;2023-04-15T07:03:01;11.83;;;3.50;;
9128;SDS011;4599;50.906;6.786;2023-04-15T07:07:03;7.77;;;3.67;;
9128;SDS011;4599;50.906;6.786;2023-04-15T07:11:05;6.87;;;3.27;;
9128;SDS011;4599;50.906;6.786;2023-04-15T07:15:07;8.80;;;3.20;;
9128;SDS011;4599;50.906;6.786;2023-04-15T07:19:09;8.27;;;3.47;;
9128;SDS011;4599;50.906;6.786;2023-04-15T07:23:12;5.43;;;3.47;;
9128;SDS011;4599;50.906;6.786;2023-04-15T07:27:13;4.77;;;3.60;;
9128;SDS011;4599;50.906;6.786;2023-04-15T07:31:15;9.57;;;4.07;;
9128;SDS011;4599;50.906;6.786;2023-04-15T07:35:16;8.10;;;4.33;;
9128;SDS011;4599;50.906;6.786;2023-04-15T07:39:19;5.87;;;4.50;;
9128;SDS011;4599;50.906;6.786;2023-04-15T07:43:21;7.03;;;4.53;;
9128;SDS011;4599;50.906;6.786;2023-04-15T07:47:22;7.70;;;4.60;;
9128;SDS011;4599;50.906;6.786;2023-04-15T07:51:24;5.13;;;4.60;;
9128;SDS011;4599;50.906;6.786;2023-04-15T07:55:27;7.83;;;4.60;;
9128;SDS011;4599;50.906;6.786;2023-04-15T07:59:28;7.90;;;4.90;;
9128;SDS011;4599;50.906;6.786;2023-04-15T08:03:30;6.00;;;4.67;;
9128;SDS011;4599;50.906;6.786;2023-04-15T08:07:31;7.30;;;4.67;;
9128;SDS011;4599;50.906;6.786;2023-04-15T08:11:34;6.97;;;4.40;;
9128;SDS011;4599;50.906;6.786;2023-04-15T08:15:36;5.90;;;4.80;;
9128;SDS011;4599;50.906;6.786;2023-04-15T08:19:37;10.33;;;4.17;;
9128;SDS011;4599;50.906;6.786;2023-04-15T08:23:40;6.17;;;4.73;;
9128;SDS011;4599;50.906;6.786;2023-04-15T08:27:43;6.43;;;4.40;;
9128;SDS011;4599;50.906;6.786;2023-04-15T08:31:44;5.77;;;5.13;;
9128;SDS011;4599;50.906;6.786;2023-04-15T08:35:47;5.73;;;5.00;;
9128;SDS011;4599;50.906;6.786;2023-04-15T08:39:48;6.23;;;4.93;;
9128;SDS011;4599;50.906;6.786;2023-04-15T08:43:55;8.53;;;4.83;;
9128;SDS011;4599;50.906;6.786;2023-04-15T08:47:58;8.73;;;5.27;;
9128;SDS011;4599;50.906;6.786;2023-04-15T08:52:03;6.20;;;5.13;;
9128;SDS011;4599;50.906;6.786;2023-04-15T08:56:06;4.93;;;3.30;;
9128;SDS011;4599;50.906;6.786;2023-04-15T09:00:11;3.17;;;2.17;;
9128;SDS011;4599;50.906;6.786;2023-04-15T09:04:14;2.90;;;2.50;;
9128;SDS011;4599;50.906;6.786;2023-04-15T09:08:16;3.80;;;2.50;;
9128;SDS011;4599;50.906;6.786;2023-04-15T09:12:18;3.20;;;2.50;;
9128;SDS011;4599;50.906;6.786;2023-04-15T09:16:21;2.30;;;2.10;;
9128;SDS011;4599;50.906;6.786;2023-04-15T09:20:22;3.77;;;1.80;;
9128;SDS011;4599;50.906;6.786;2023-04-15T09:24:24;2.17;;;1.57;;
9128;SDS011;4599;50.906;6.786;2023-04-15T09:28:40;1.97;;;1.50;;
9128;SDS011;4599;50.906;6.786;2023-04-15T09:32:48;1.90;;;1.53;;
9128;SDS011;4599;50.906;6.786;2023-04-15T09:36:54;2.83;;;2.00;;
9128;SDS011;4599;50.906;6.786;2023-04-15T09:40:57;2.80;;;2.20;;
9128;SDS011;4599;50.906;6.786;2023-04-15T09:45:06;3.93;;;2.20;;
9128;SDS011;4599;50.906;6.786;2023-04-15T09:49:10;5.03;;;2.17;;
9128;SDS011;4599;50.906;6.786;2023-04-15T09:53:14;3.50;;;2.27;;
9128;SDS011;4599;50.906;6.786;2023-04-15T09:57:17;8.00;;;2.30;;
9128;SDS011;4599;50.906;6.786;2023-04-15T10:01:18;3.30;;;2.20;;
9128;SDS011;4599;50.906;6.786;2023-04-15T10:05:21;2.60;;;2.00;;
9128;SDS011;4599;50.906;6.786;2023-04-15T10:09:23;2.90;;;2.00;;
9128;SDS011;4599;50.906;6.786;2023-04-15T10:13:25;3.17;;;2.20;;
9128;SDS011;4599;50.906;6.786;2023-04-15T10:17:29;8.67;;;3.17;;
9128;SDS011;4599;50.906;6.786;2023-04-15T10:21:34;5.00;;;3.20;;
9128;SDS011;4599;50.906;6.786;2023-04-15T10:25:37;2.97;;;2.37;;
9128;SDS011;4599;50.906;6.786;2023-04-15T10:29:39;3.83;;;2.60;;
9128;SDS011;4599;50.906;6.786;2023-04-15T10:33:41;3.50;;;2.37;;
9128;SDS011;4599;50.906;6.786;2023-04-15T10:37:45;3.17;;;2.87;;
9128;SDS011;4599;50.906;6.786;2023-04-15T10:41:47;3.70;;;3.07;;
9128;SDS011;4599;50.906;6.786;2023-04-15T10:46:06;3.37;;;3.07;;
9128;SDS011;4599;50.906;6.786;2023-04-15T10:50:08;2.23;;;2.07;;
9128;SDS011;4599;50.906;6.786;2023-04-15T10:54:13;5.33;;;1.90;;
9128;SDS011;4599;50.906;6.786;2023-04-15T10:58:16;5.27;;;2.07;;
9128;SDS011;4599;50.906;6.786;2023-04-15T11:02:18;4.37;;;1.90;;
9128;SDS011;4599;50.906;6.786;2023-04-15T11:06:20;6.10;;;2.03;;
9128;SDS011;4599;50.906;6.786;2023-04-15T11:10:51;3.37;;;2.20;;
9128;SDS011;4599;50.906;6.786;2023-04-15T11:14:54;3.30;;;2.00;;
9128;SDS011;4599;50.906;6.786;2023-04-15T11:18:55;4.53;;;2.60;;
9128;SDS011;4599;50.906;6.786;2023-04-15T11:22:56;5.37;;;2.40;;
9128;SDS011;4599;50.906;6.786;2023-04-15T11:27:21;5.50;;;2.30;;
9128;SDS011;4599;50.906;6.786;2023-04-15T11:31:23;3.73;;;2.50;;
9128;SDS011;4599;50.906;6.786;2023-04-15T11:35:27;2.50;;;2.30;;
9128;SDS011;4599;50.906;6.786;2023-04-15T11:39:29;3.17;;;2.20;;
9128;SDS011;4599;50.906;6.786;2023-04-15T11:43:32;5.73;;;2.37;;
9128;SDS011;4599;50.906;6.786;2023-04-15T11:47:33;6.50;;;2.20;;
9128;SDS011;4599;50.906;6.786;2023-04-15T11:51:35;3.87;;;2.20;;
9128;SDS011;4599;50.906;6.786;2023-04-15T11:55:43;2.40;;;2.17;;
9128;SDS011;4599;50.906;6.786;2023-04-15T11:59:47;2.10;;;2.00;;
9128;SDS011;4599;50.906;6.786;2023-04-15T12:03:49;7.77;;;2.10;;
9128;SDS011;4599;50.906;6.786;2023-04-15T12:07:57;2.80;;;1.80;;
9128;SDS011;4599;50.906;6.786;2023-04-15T12:11:58;1.80;;;1.70;;
9128;SDS011;4599;50.906;6.786;2023-04-15T12:16:03;4.73;;;1.70;;
9128;SDS011;4599;50.906;6.786;2023-04-15T12:20:05;1.93;;;1.73;;
9128;SDS011;4599;50.906;6.786;2023-04-15T12:24:07;8.83;;;2.80;;
9128;SDS011;4599;50.906;6.786;2023-04-15T12:28:10;3.80;;;3.33;;
9128;SDS011;4599;50.906;6.786;2023-04-15T12:32:14;5.13;;;4.00;;
9128;SDS011;4599;50.906;6.786;2023-04-15T12:36:16;5.37;;;4.40;;
9128;SDS011;4599;50.906;6.786;2023-04-15T12:40:18;6.53;;;5.70;;
9128;SDS011;4599;50.906;6.786;2023-04-15T12:44:21;6.20;;;5.60;;
9128;SDS011;4599;50.906;6.786;2023-04-15T12:48:25;10.70;;;9.17;;
9128;SDS011;4599;50.906;6.786;2023-04-15T12:52:26;9.83;;;7.97;;
9128;SDS011;4599;50.906;6.786;2023-04-15T12:56:28;8.20;;;7.40;;
9128;SDS011;4599;50.906;6.786;2023-04-15T13:00:29;7.50;;;6.70;;
9128;SDS011;4599;50.906;6.786;2023-04-15T13:04:35;7.13;;;6.43;;
9128;SDS011;4599;50.906;6.786;2023-04-15T13:08:37;7.57;;;6.70;;
9128;SDS011;4599;50.906;6.786;2023-04-15T13:12:45;8.60;;;5.93;;
9128;SDS011;4599;50.906;6.786;2023-04-15T13:16:46;8.17;;;7.37;;
9128;SDS011;4599;50.906;6.786;2023-04-15T13:20:49;10.27;;;9.07;;
9128;SDS011;4599;50.906;6.786;2023-04-15T13:24:51;12.53;;;9.80;;
9128;SDS011;4599;50.906;6.786;2023-04-15T13:28:53;9.10;;;8.20;;
9128;SDS011;4599;50.906;6.786;2023-04-15T13:32:54;6.37;;;5.77;;
9128;SDS011;4599;50.906;6.786;2023-04-15T13:36:57;6.80;;;5.57;;
9128;SDS011;4599;50.906;6.786;2023-04-15T13:40:58;7.13;;;4.67;;
9128;SDS011;4599;50.906;6.786;2023-04-15T13:45:00;4.77;;;4.33;;
9128;SDS011;4599;50.906;6.786;2023-04-15T13:49:01;5.97;;;4.33;;
9128;SDS011;4599;50.906;6.786;2023-04-15T13:53:04;6.30;;;3.70;;
9128;SDS011;4599;50.906;6.786;2023-04-15T13:57:05;3.73;;;3.10;;
9128;SDS011;4599;50.906;6.786;2023-04-15T14:01:07;4.60;;;3.10;;
9128;SDS011;4599;50.906;6.786;2023-04-15T14:05:09;5.13;;;4.50;;
9128;SDS011;4599;50.906;6.786;2023-04-15T14:09:12;5.80;;;4.57;;
9128;SDS011;4599;50.906;6.786;2023-04-15T14:13:14;6.03;;;4.93;;
9128;SDS011;4599;50.906;6.786;2023-04-15T14:17:15;4.80;;;4.40;;
9128;SDS011;4599;50.906;6.786;2023-04-15T14:21:17;6.07;;;4.07;;
9128;SDS011;4599;50.906;6.786;2023-04-15T14:25:19;4.27;;;3.90;;
9128;SDS011;4599;50.906;6.786;2023-04-15T14:29:33;4.63;;;3.60;;
9128;SDS011;4599;50.906;6.786;2023-04-15T14:33:35;3.40;;;3.10;;
9128;SDS011;4599;50.906;6.786;2023-04-15T14:37:37;5.07;;;3.30;;
9128;SDS011;4599;50.906;6.786;2023-04-15T14:41:39;3.40;;;3.10;;
9128;SDS011;4599;50.906;6.786;2023-04-15T14:45:41;5.30;;;3.13;;
9128;SDS011;4599;50.906;6.786;2023-04-15T14:49:45;4.73;;;2.83;;
9128;SDS011;4599;50.906;6.786;2023-04-15T14:53:47;3.63;;;3.00;;
9128;SDS011;4599;50.906;6.786;2023-04-15T14:57:49;4.50;;;3.00;;
9128;SDS011;4599;50.906;6.786;2023-04-15T15:01:51;6.47;;;2.87;;
9128;SDS011;4599;50.906;6.786;2023-04-15T15:05:53;3.17;;;2.87;;
9128;SDS011;4599;50.906;6.786;2023-04-15T15:09:55;3.97;;;2.70;;
9128;SDS011;4599;50.906;6.786;2023-04-15T15:13:57;3.80;;;2.80;;
9128;SDS011;4599;50.906;6.786;2023-04-15T15:17:59;4.10;;;3.07;;
9128;SDS011;4599;50.906;6.786;2023-04-15T15:22:01;5.07;;;2.70;;
9128;SDS011;4599;50.906;6.786;2023-04-15T15:26:03;3.07;;;2.77;;
9128;SDS011;4599;50.906;6.786;2023-04-15T15:30:07;7.20;;;4.27;;
9128;SDS011;4599;50.906;6.786;2023-04-15T15:34:09;7.47;;;3.60;;
9128;SDS011;4599;50.906;6.786;2023-04-15T15:38:10;7.80;;;3.30;;
9128;SDS011;4599;50.906;6.786;2023-04-15T15:42:12;6.30;;;4.20;;
9128;SDS011;4599;50.906;6.786;2023-04-15T15:46:16;4.73;;;3.97;;
9128;SDS011;4599;50.906;6.786;2023-04-15T15:50:18;5.03;;;3.77;;
9128;SDS011;4599;50.906;6.786;2023-04-15T15:54:20;3.90;;;3.33;;
9128;SDS011;4599;50.906;6.786;2023-04-15T15:58:22;6.50;;;3.10;;
9128;SDS011;4599;50.906;6.786;2023-04-15T16:02:24;6.23;;;2.77;;
9128;SDS011;4599;50.906;6.786;2023-04-15T16:06:47;3.90;;;2.90;;
9128;SDS011;4599;50.906;6.786;2023-04-15T16:10:49;4.70;;;3.03;;
9128;SDS011;4599;50.906;6.786;2023-04-15T16:14:50;5.70;;;2.70;;
9128;SDS011;4599;50.906;6.786;2023-04-15T16:18:53;3.37;;;2.50;;
9128;SDS011;4599;50.906;6.786;2023-04-15T16:22:55;3.17;;;2.60;;
9128;SDS011;4599;50.906;6.786;2023-04-15T16:26:56;4.20;;;2.93;;
9128;SDS011;4599;50.906;6.786;2023-04-15T16:30:57;4.23;;;2.70;;
9128;SDS011;4599;50.906;6.786;2023-04-15T16:35:00;5.57;;;3.30;;
9128;SDS011;4599;50.906;6.786;2023-04-15T16:39:02;3.70;;;2.53;;
9128;SDS011;4599;50.906;6.786;2023-04-15T16:43:04;4.43;;;2.53;;
9128;SDS011;4599;50.906;6.786;2023-04-15T16:47:06;3.83;;;2.27;;
9128;SDS011;4599;50.906;6.786;2023-04-15T16:51:09;5.73;;;3.50;;
9128;SDS011;4599;50.906;6.786;2023-04-15T16:55:10;3.27;;;2.33;;
9128;SDS011;4599;50.906;6.786;2023-04-15T16:59:12;2.73;;;2.50;;
9128;SDS011;4599;50.906;6.786;2023-04-15T17:03:13;3.83;;;3.10;;
9128;SDS011;4599;50.906;6.786;2023-04-15T17:07:16;2.90;;;2.50;;
9128;SDS011;4599;50.906;6.786;2023-04-15T17:11:18;5.83;;;2.20;;
9128;SDS011;4599;50.906;6.786;2023-04-15T17:15:19;2.43;;;2.03;;
9128;SDS011;4599;50.906;6.786;2023-04-15T17:19:21;2.80;;;2.20;;
9128;SDS011;4599;50.906;6.786;2023-04-15T17:23:24;2.77;;;1.90;;
9128;SDS011;4599;50.906;6.786;2023-04-15T17:27:26;3.37;;;2.10;;
9128;SDS011;4599;50.906;6.786;2023-04-15T17:31:28;3.90;;;2.10;;
9128;SDS011;4599;50.906;6.786;2023-04-15T17:35:30;2.30;;;2.10;;
9128;SDS011;4599;50.906;6.786;2023-04-15T17:39:33;2.60;;;2.40;;
9128;SDS011;4599;50.906;6.786;2023-04-15T17:43:34;2.63;;;2.33;;
9128;SDS011;4599;50.906;6.786;2023-04-15T17:47:36;2.60;;;2.10;;
9128;SDS011;4599;50.906;6.786;2023-04-15T17:51:38;2.83;;;2.23;;
9128;SDS011;4599;50.906;6.786;2023-04-15T17:55:40;3.27;;;2.00;;
9128;SDS011;4599;50.906;6.786;2023-04-15T17:59:42;4.53;;;1.90;;
9128;SDS011;4599;50.906;6.786;2023-04-15T18:03:43;2.80;;;2.10;;
9128;SDS011;4599;50.906;6.786;2023-04-15T18:07:45;3.80;;;2.20;;
9128;SDS011;4599;50.906;6.786;2023-04-15T18:11:48;2.50;;;1.93;;
9128;SDS011;4599;50.906;6.786;2023-04-15T18:15:49;2.20;;;2.00;;
9128;SDS011;4599;50.906;6.786;2023-04-15T18:19:51;2.67;;;1.80;;
9128;SDS011;4599;50.906;6.786;2023-04-15T18:23:52;3.90;;;1.93;;
9128;SDS011;4599;50.906;6.786;2023-04-15T18:27:55;3.20;;;2.00;;
9128;SDS011;4599;50.906;6.786;2023-04-15T18:31:56;4.77;;;2.20;;
9128;SDS011;4599;50.906;6.786;2023-04-15T18:35:58;4.70;;;3.00;;
9128;SDS011;4599;50.906;6.786;2023-04-15T18:39:59;3.23;;;2.47;;
9128;SDS011;4599;50.906;6.786;2023-04-15T18:44:02;6.33;;;2.17;;
9128;SDS011;4599;50.906;6.786;2023-04-15T18:48:04;5.67;;;2.20;;
9128;SDS011;4599;50.906;6.786;2023-04-15T18:52:06;8.17;;;2.00;;
9128;SDS011;4599;50.906;6.786;2023-04-15T18:56:07;5.10;;;2.60;;
9128;SDS011;4599;50.906;6.786;2023-04-15T19:00:11;6.90;;;3.63;;
9128;SDS011;4599;50.906;6.786;2023-04-15T19:04:13;4.07;;;2.93;;
9128;SDS011;4599;50.906;6.786;2023-04-15T19:08:15;6.17;;;3.77;;
9128;SDS011;4599;50.906;6.786;2023-04-15T19:12:16;4.50;;;2.97;;
9128;SDS011;4599;50.906;6.786;2023-04-15T19:16:19;5.13;;;2.97;;
9128;SDS011;4599;50.906;6.786;2023-04-15T19:20:21;6.90;;;2.80;;
9128;SDS011;4599;50.906;6.786;2023-04-15T19:24:22;7.87;;;3.27;;
9128;SDS011;4599;50.906;6.786;2023-04-15T19:28:24;6.27;;;3.10;;
9128;SDS011;4599;50.906;6.786;2023-04-15T19:32:27;4.97;;;2.73;;
9128;SDS011;4599;50.906;6.786;2023-04-15T19:36:28;7.20;;;2.90;;
9128;SDS011;4599;50.906;6.786;2023-04-15T19:40:31;4.00;;;2.87;;
9128;SDS011;4599;50.906;6.786;2023-04-15T19:44:32;9.33;;;2.90;;
9128;SDS011;4599;50.906;6.786;2023-04-15T19:48:35;8.57;;;3.00;;
9128;SDS011;4599;50.906;6.786;2023-04-15T19:52:37;6.23;;;3.37;;
9128;SDS011;4599;50.906;6.786;2023-04-15T19:56:38;4.93;;;3.20;;
9128;SDS011;4599;50.906;6.786;2023-04-15T20:00:40;4.17;;;2.83;;
9128;SDS011;4599;50.906;6.786;2023-04-15T20:04:42;4.70;;;2.63;;
9128;SDS011;4599;50.906;6.786;2023-04-15T20:08:44;7.63;;;3.00;;
9128;SDS011;4599;50.906;6.786;2023-04-15T20:12:45;6.00;;;2.97;;
9128;SDS011;4599;50.906;6.786;2023-04-15T20:16:53;4.40;;;2.83;;
9128;SDS011;4599;50.906;6.786;2023-04-15T20:20:56;6.63;;;3.03;;
9128;SDS011;4599;50.906;6.786;2023-04-15T20:24:58;9.10;;;2.63;;
9128;SDS011;4599;50.906;6.786;2023-04-15T20:29:00;7.87;;;2.70;;
9128;SDS011;4599;50.906;6.786;2023-04-15T20:33:02;7.23;;;3.10;;
9128;SDS011;4599;50.906;6.786;2023-04-15T20:37:05;10.00;;;3.27;;
9128;SDS011;4599;50.906;6.786;2023-04-15T20:41:23;5.90;;;3.37;;
9128;SDS011;4599;50.906;6.786;2023-04-15T20:45:25;9.27;;;3.80;;
9128;SDS011;4599;50.906;6.786;2023-04-15T20:49:26;5.93;;;3.90;;
9128;SDS011;4599;50.906;6.786;2023-04-15T20:53:27;7.80;;;4.23;;
9128;SDS011;4599;50.906;6.786;2023-04-15T20:57:30;7.77;;;4.03;;
9128;SDS011;4599;50.906;6.786;2023-04-15T21:01:32;6.10;;;3.60;;
9128;SDS011;4599;50.906;6.786;2023-04-15T21:05:33;7.93;;;3.50;;
9128;SDS011;4599;50.906;6.786;2023-04-15T21:09:35;5.50;;;3.13;;
9128;SDS011;4599;50.906;6.786;2023-04-15T21:13:38;7.70;;;3.07;;
9128;SDS011;4599;50.906;6.786;2023-04-15T21:17:39;8.70;;;3.30;;
9128;SDS011;4599;50.906;6.786;2023-04-15T21:21:41;5.63;;;3.20;;
9128;SDS011;4599;50.906;6.786;2023-04-15T21:25:42;10.20;;;3.20;;
9128;SDS011;4599;50.906;6.786;2023-04-15T21:29:45;4.87;;;3.40;;
9128;SDS011;4599;50.906;6.786;2023-04-15T21:33:46;5.30;;;2.67;;
9128;SDS011;4599;50.906;6.786;2023-04-15T21:37:48;10.83;;;3.30;;
9128;SDS011;4599;50.906;6.786;2023-04-15T21:41:49;7.67;;;3.20;;
9128;SDS011;4599;50.906;6.786;2023-04-15T21:45:52;4.70;;;3.00;;
9128;SDS011;4599;50.906;6.786;2023-04-15T21:50:14;5.13;;;3.27;;
9128;SDS011;4599;50.906;6.786;2023-04-15T21:54:15;7.00;;;3.40;;
9128;SDS011;4599;50.906;6.786;2023-04-15T21:58:17;5.60;;;3.17;;
9128;SDS011;4599;50.906;6.786;2023-04-15T22:02:20;5.90;;;3.33;;
9128;SDS011;4599;50.906;6.786;2023-04-15T22:06:21;7.87;;;3.40;;
9128;SDS011;4599;50.906;6.786;2023-04-15T22:10:23;7.83;;;3.60;;
9128;SDS011;4599;50.906;6.786;2023-04-15T22:14:24;7.30;;;3.53;;
9128;SDS011;4599;50.906;6.786;2023-04-15T22:18:27;9.20;;;4.33;;
9128;SDS011;4599;50.906;6.786;2023-04-15T22:22:29;10.93;;;5.50;;
9128;SDS011;4599;50.906;6.786;2023-04-15T22:26:44;12.23;;;6.70;;
9128;SDS011;4599;50.906;6.786;2023-04-15T22:30:46;10.23;;;5.87;;
9128;SDS011;4599;50.906;6.786;2023-04-15T22:34:49;9.63;;;5.87;;
9128;SDS011;4599;50.906;6.786;2023-04-15T22:38:50;12.00;;;6.73;;
9128;SDS011;4599;50.906;6.786;2023-04-15T22:42:52;12.30;;;7.97;;
9128;SDS011;4599;50.906;6.786;2023-04-15T22:46:53;12.07;;;7.90;;
9128;SDS011;4599;50.906;6.786;2023-04-15T22:50:56;12.23;;;6.73;;
9128;SDS011;4599;50.906;6.786;2023-04-15T22:54:57;13.37;;;6.80;;
9128;SDS011;4599;50.906;6.786;2023-04-15T22:58:59;12.87;;;6.97;;
9128;SDS011;4599;50.906;6.786;2023-04-15T23:03:00;11.70;;;7.43;;
9128;SDS011;4599;50.906;6.786;2023-04-15T23:07:03;12.53;;;7.70;;
9128;SDS011;4599;50.906;6.786;2023-04-15T23:11:05;14.90;;;7.80;;
9128;SDS011;4599;50.906;6.786;2023-04-15T23:15:07;16.70;;;9.83;;
9128;SDS011;4599;50.906;6.786;2023-04-15T23:19:09;19.60;;;10.73;;
9128;SDS011;4599;50.906;6.786;2023-04-15T23:23:12;26.87;;;10.80;;
9128;SDS011;4599;50.906;6.786;2023-04-15T23:27:14;16.77;;;10.27;;
9128;SDS011;4599;50.906;6.786;2023-04-15T23:31:15;15.63;;;10.57;;
9128;SDS011;4599;50.906;6.786;2023-04-15T23:35:17;18.27;;;10.97;;
9128;SDS011;4599;50.906;6.786;2023-04-15T23:39:22;15.73;;;11.07;;
9128;SDS011;4599;50.906;6.786;2023-04-15T23:43:24;21.03;;;12.30;;
9128;SDS011;4599;50.906;6.786;2023-04-15T23:47:26;18.27;;;11.47;;
9128;SDS011;4599;50.906;6.786;2023-04-15T23:51:27;16.37;;;10.03;;
9128;SDS011;4599;50.906;6.786;2023-04-15T23:55:30;14.47;;;9.03;;
9128;SDS011;4599;50.906;6.786;2023-04-15T23:59:32;16.10;;;8.80;;
